createdAt,value
2022-08-10T00:01:52.099Z,100.00
2022-08-10T00:04:24.115Z,100.00
2022-08-10T00:06:53.566Z,100.00
2022-08-10T00:09:24.827Z,100.00
2022-08-10T00:11:53.598Z,100.00
2022-08-10T00:14:22.006Z,100.00
2022-08-10T00:16:50.674Z,100.00
2022-08-10T00:19:19.456Z,100.00
2022-08-10T00:21:48.201Z,100.00
2022-08-10T00:24:17.069Z,100.00
2022-08-10T00:28:02.326Z,100.00
2022-08-10T00:29:36.265Z,100.00
2022-08-10T00:32:05.902Z,100.00
2022-08-10T00:34:35.135Z,100.00
2022-08-10T00:37:03.894Z,100.00
2022-08-10T00:39:36.204Z,100.00
2022-08-10T00:42:09.807Z,100.00
2022-08-10T00:44:39.934Z,100.00
2022-08-10T00:47:16.272Z,100.00
2022-08-10T00:49:58.828Z,100.00
2022-08-10T00:52:28.793Z,100.00
2022-08-10T00:54:57.642Z,100.00
2022-08-10T00:57:27.788Z,100.00
2022-08-10T01:00:00.134Z,100.00
2022-08-10T01:02:31.001Z,100.00
2022-08-10T01:05:02.487Z,100.00
2022-08-10T01:07:52.336Z,100.00
2022-08-10T01:10:39.658Z,100.00
2022-08-10T01:13:14.575Z,100.00
2022-08-10T01:15:54.562Z,100.00
2022-08-10T01:18:33.684Z,100.00
2022-08-10T01:21:33.831Z,100.00
2022-08-10T01:24:24.946Z,100.00
2022-08-10T01:27:27.139Z,100.00
2022-08-10T01:30:08.950Z,100.00
2022-08-10T01:32:55.307Z,100.00
2022-08-10T01:35:30.449Z,100.00
2022-08-10T01:38:05.110Z,100.00
2022-08-10T01:40:43.347Z,100.00
2022-08-10T01:43:15.918Z,100.00
2022-08-10T01:45:50.714Z,100.00
2022-08-10T01:48:29.207Z,100.00
2022-08-10T01:51:02.648Z,100.00
2022-08-10T01:53:41.074Z,100.00
2022-08-10T01:56:14.248Z,100.00
2022-08-10T01:58:45.468Z,100.00
2022-08-10T02:01:18.884Z,100.00
2022-08-10T02:04:04.007Z,100.00
2022-08-10T02:06:36.928Z,100.00
2022-08-10T02:09:07.629Z,100.00
2022-08-10T02:12:06.252Z,100.00
2022-08-10T02:14:32.966Z,100.00
2022-08-10T02:17:07.845Z,100.00
2022-08-10T02:19:40.333Z,100.00
2022-08-10T02:22:35.909Z,100.00
2022-08-10T02:25:01.029Z,100.00
2022-08-10T02:27:30.992Z,100.00
2022-08-10T02:30:00.285Z,100.00
2022-08-10T02:32:36.199Z,100.00
2022-08-10T02:35:18.672Z,100.00
2022-08-10T02:37:53.922Z,100.00
2022-08-10T02:45:09.050Z,100.00
2022-08-10T02:45:26.508Z,100.00
2022-08-10T02:46:18.138Z,100.00
2022-08-10T02:48:55.450Z,100.00
2022-08-10T02:52:06.813Z,100.00
2022-08-10T02:54:21.609Z,100.00
2022-08-10T02:56:56.671Z,100.00
2022-08-10T02:59:40.027Z,100.00
2022-08-10T03:02:13.801Z,100.00
2022-08-10T03:04:55.303Z,100.00
2022-08-10T03:07:43.280Z,100.00
2022-08-10T03:10:17.937Z,100.00
2022-08-10T03:12:52.995Z,100.00
2022-08-10T03:15:22.982Z,100.00
2022-08-10T03:17:57.959Z,100.00
2022-08-10T03:20:34.368Z,100.00
2022-08-10T03:23:11.271Z,100.00
2022-08-10T03:25:40.347Z,100.00
2022-08-10T03:28:09.740Z,100.00
2022-08-10T03:30:38.662Z,100.00
2022-08-10T03:33:08.885Z,100.00
2022-08-10T03:35:38.927Z,100.00
2022-08-10T03:38:07.558Z,100.00
2022-08-10T03:40:45.434Z,100.00
2022-08-10T03:43:18.488Z,100.00
2022-08-10T03:45:55.642Z,100.00
2022-08-10T03:48:32.333Z,100.00
2022-08-10T03:51:17.954Z,100.00
2022-08-10T03:54:05.931Z,100.00
2022-08-10T03:56:39.724Z,100.00
2022-08-10T03:59:11.419Z,100.00
2022-08-10T04:02:42.273Z,100.00
2022-08-10T04:04:29.175Z,100.00
2022-08-10T04:07:01.804Z,100.00
2022-08-10T04:09:54.191Z,100.00
2022-08-10T04:12:21.924Z,100.00
2022-08-10T04:14:52.737Z,100.00
2022-08-10T04:18:03.293Z,100.00
2022-08-10T04:20:19.675Z,100.00
2022-08-10T04:22:53.065Z,100.00
2022-08-10T04:25:23.840Z,100.00
2022-08-10T04:27:53.552Z,100.00
2022-08-10T04:30:22.622Z,100.00
2022-08-10T04:32:54.947Z,100.00
2022-08-10T04:35:25.337Z,100.00
2022-08-10T04:37:56.998Z,100.00
2022-08-10T04:40:29.871Z,100.00
2022-08-10T04:43:05.878Z,100.00
2022-08-10T04:45:47.417Z,100.00
2022-08-10T04:48:42.603Z,100.00
2022-08-10T04:51:10.733Z,100.00
2022-08-10T04:54:03.118Z,100.00
2022-08-10T04:56:31.588Z,100.00
2022-08-10T04:59:00.548Z,100.00
2022-08-10T05:02:21.778Z,100.00
2022-08-10T05:04:34.628Z,100.00
2022-08-10T05:07:07.045Z,100.00
2022-08-10T05:10:03.403Z,100.00
2022-08-10T05:12:25.798Z,100.00
2022-08-10T05:14:54.677Z,100.00
2022-08-10T05:17:24.105Z,100.00
2022-08-10T05:20:03.718Z,100.00
2022-08-10T05:22:39.803Z,100.00
2022-08-10T05:25:12.629Z,100.00
2022-08-10T05:27:41.981Z,100.00
2022-08-10T05:30:13.803Z,100.00
2022-08-10T05:32:57.138Z,100.00
2022-08-10T05:35:39.093Z,100.00
2022-08-10T05:38:19.753Z,100.00
2022-08-10T05:40:51.887Z,100.00
2022-08-10T05:43:22.080Z,100.00
2022-08-10T05:46:17.164Z,100.00
2022-08-10T05:48:59.033Z,100.00
2022-08-10T05:51:31.047Z,100.00
2022-08-10T05:54:04.599Z,100.00
2022-08-10T05:56:55.859Z,100.00
2022-08-10T06:00:32.837Z,100.00
2022-08-10T06:02:31.310Z,100.00
2022-08-10T06:05:07.558Z,100.00
2022-08-10T06:07:38.902Z,100.00
2022-08-10T06:10:10.655Z,100.00
2022-08-10T06:12:54.936Z,100.00
2022-08-10T06:15:51.559Z,100.00
2022-08-10T06:18:15.740Z,100.00
2022-08-10T06:20:44.722Z,100.00
2022-08-10T06:23:13.693Z,100.00
2022-08-10T06:26:10.405Z,100.00
2022-08-10T06:28:37.824Z,100.00
2022-08-10T06:31:08.342Z,100.00
2022-08-10T06:33:40.525Z,100.00
2022-08-10T06:36:10.089Z,100.00
2022-08-10T06:38:40.023Z,100.00
2022-08-10T06:41:16.826Z,100.00
2022-08-10T06:43:57.932Z,100.00
2022-08-10T06:46:29.166Z,100.00
2022-08-10T06:49:02.682Z,100.00
2022-08-10T06:51:33.408Z,100.00
2022-08-10T06:54:05.732Z,100.00
2022-08-10T06:56:41.552Z,100.00
2022-08-10T06:59:27.451Z,100.00
2022-08-10T07:02:00.976Z,100.00
2022-08-10T07:04:34.821Z,100.00
2022-08-10T07:07:05.795Z,100.00
2022-08-10T07:09:37.893Z,100.00
2022-08-10T07:12:09.370Z,100.00
2022-08-10T07:14:43.638Z,100.00
2022-08-10T07:17:18.955Z,100.00
2022-08-10T07:19:52.460Z,100.00
2022-08-10T07:23:22.822Z,100.00
2022-08-10T07:25:13.729Z,100.00
2022-08-10T07:28:00.304Z,100.00
2022-08-10T07:30:35.066Z,100.00
2022-08-10T07:33:05.584Z,100.00
2022-08-10T07:35:41.776Z,100.00
2022-08-10T07:38:15.140Z,100.00
2022-08-10T07:40:44.591Z,100.00
2022-08-10T07:43:15.526Z,100.00
2022-08-10T07:45:48.616Z,100.00
2022-08-10T07:48:20.978Z,100.00
2022-08-10T07:50:55.217Z,100.00
2022-08-10T07:53:28.258Z,100.00
2022-08-10T07:56:03.663Z,100.00
2022-08-10T07:58:51.407Z,100.00
2022-08-10T08:01:28.465Z,100.00
2022-08-10T08:04:10.634Z,100.00
2022-08-10T08:06:42.701Z,100.00
2022-08-10T08:09:11.929Z,100.00
2022-08-10T08:11:45.725Z,100.00
2022-08-10T08:14:16.316Z,100.00
2022-08-10T08:16:51.238Z,100.00
2022-08-10T08:19:26.553Z,100.00
2022-08-10T08:24:05.427Z,100.00
2022-08-10T08:24:47.309Z,100.00
2022-08-10T08:27:19.865Z,100.00
2022-08-10T08:29:50.799Z,100.00
2022-08-10T08:32:23.747Z,100.00
2022-08-10T08:34:57.636Z,100.00
2022-08-10T08:38:29.198Z,100.00
2022-08-10T08:40:23.714Z,100.00
2022-08-10T08:43:10.526Z,100.00
2022-08-10T08:46:00.826Z,100.00
2022-08-10T08:48:53.269Z,100.00
2022-08-10T08:52:07.272Z,100.00
2022-08-10T08:54:33.361Z,100.00
2022-08-10T08:57:07.132Z,100.00
2022-08-10T08:59:53.343Z,100.00
2022-08-10T09:02:35.935Z,100.00
2022-08-10T09:05:22.821Z,100.00
2022-08-10T09:08:14.469Z,91.24
2022-08-10T09:10:51.964Z,88.38
2022-08-10T09:13:29.581Z,88.12
2022-08-10T09:16:10.028Z,84.77
2022-08-10T09:18:46.716Z,83.93
2022-08-10T09:21:21.026Z,77.92
2022-08-10T09:24:05.429Z,74.49
2022-08-10T09:26:46.823Z,70.96
2022-08-10T09:29:24.044Z,70.50
2022-08-10T09:36:15.283Z,65.32
2022-08-10T09:36:26.784Z,62.95
2022-08-10T09:38:12.354Z,65.21
2022-08-10T09:41:00.689Z,63.96
2022-08-10T09:43:42.095Z,63.18
2022-08-10T09:46:22.630Z,60.23
2022-08-10T09:49:02.536Z,58.52
2022-08-10T09:51:48.066Z,57.25
2022-08-10T09:54:37.555Z,50.54
2022-08-10T09:57:44.312Z,49.08
2022-08-10T10:00:21.422Z,47.60
2022-08-10T10:03:09.757Z,46.04
2022-08-10T10:05:54.542Z,46.03
2022-08-10T10:08:31.277Z,46.01
2022-08-10T10:11:13.265Z,43.82
2022-08-10T10:14:02.909Z,43.01
2022-08-10T10:16:48.327Z,44.02
2022-08-10T10:19:32.092Z,44.18
2022-08-10T10:22:22.129Z,40.92
2022-08-10T10:24:57.658Z,42.90
2022-08-10T10:27:40.884Z,41.01
2022-08-10T10:30:12.429Z,42.59
2022-08-10T10:32:57.655Z,42.77
2022-08-10T10:35:39.169Z,40.87
2022-08-10T10:38:10.849Z,41.57
2022-08-10T10:40:46.927Z,40.75
2022-08-10T10:43:41.910Z,40.70
2022-08-10T10:46:25.865Z,40.36
2022-08-10T10:49:04.917Z,39.82
2022-08-10T10:51:43.859Z,39.83
2022-08-10T10:54:23.507Z,38.25
2022-08-10T10:56:59.771Z,38.40
2022-08-10T10:59:55.334Z,39.97
2022-08-10T11:02:48.069Z,40.39
2022-08-10T11:05:24.455Z,40.60
2022-08-10T11:07:59.161Z,39.88
2022-08-10T11:10:44.938Z,38.37
2022-08-10T11:14:25.482Z,38.08
2022-08-10T11:16:29.374Z,37.51
2022-08-10T11:19:04.982Z,37.81
2022-08-10T11:21:47.107Z,37.55
2022-08-10T11:24:42.980Z,36.41
2022-08-10T11:27:22.127Z,36.73
2022-08-10T11:30:03.904Z,36.33
2022-08-10T11:32:44.338Z,36.68
2022-08-10T11:35:24.115Z,36.23
2022-08-10T11:38:34.209Z,35.95
2022-08-10T11:41:12.818Z,35.08
2022-08-10T11:43:55.398Z,35.99
2022-08-10T11:46:31.359Z,35.29
2022-08-10T11:49:14.409Z,34.82
2022-08-10T11:51:47.154Z,34.63
2022-08-10T11:54:25.469Z,34.18
2022-08-10T11:57:02.183Z,34.29
2022-08-10T11:59:58.068Z,32.90
2022-08-10T12:02:32.978Z,31.18
2022-08-10T12:05:08.391Z,31.66
2022-08-10T12:10:01.922Z,31.50
2022-08-10T12:10:35.373Z,30.69
2022-08-10T12:13:12.864Z,30.47
2022-08-10T12:15:52.388Z,30.64
2022-08-10T12:18:26.719Z,29.54
2022-08-10T12:21:02.073Z,29.52
2022-08-10T12:23:39.445Z,29.31
2022-08-10T12:26:14.060Z,28.78
2022-08-10T12:28:50.912Z,28.43
2022-08-10T12:31:24.608Z,28.20
2022-08-10T12:34:09.854Z,26.34
2022-08-10T12:36:43.428Z,27.11
2022-08-10T12:39:18.040Z,26.92
2022-08-10T12:41:52.860Z,26.09
2022-08-10T12:44:41.796Z,25.92
2022-08-10T12:47:20.309Z,25.55
2022-08-10T12:50:23.887Z,25.60
2022-08-10T12:52:58.199Z,25.30
2022-08-10T12:55:29.113Z,25.69
2022-08-10T12:57:59.943Z,25.41
2022-08-10T13:00:32.947Z,24.62
2022-08-10T13:03:02.960Z,25.06
2022-08-10T13:06:02.085Z,25.27
2022-08-10T13:08:42.954Z,24.97
2022-08-10T13:11:26.263Z,25.02
2022-08-10T13:14:10.314Z,24.85
2022-08-10T13:16:42.469Z,24.78
2022-08-10T13:19:13.246Z,24.55
2022-08-10T13:21:43.146Z,24.53
2022-08-10T13:24:16.215Z,24.55
2022-08-10T13:27:25.857Z,24.72
2022-08-10T13:29:44.777Z,24.91
2022-08-10T13:32:23.594Z,25.15
2022-08-10T13:34:54.015Z,24.94
2022-08-10T13:37:31.564Z,24.80
2022-08-10T13:40:04.356Z,24.54
2022-08-10T13:42:38.036Z,24.53
2022-08-10T13:45:10.632Z,24.23
2022-08-10T13:47:48.667Z,24.51
2022-08-10T13:50:32.015Z,24.64
2022-08-10T13:53:09.972Z,24.56
2022-08-10T13:55:53.877Z,24.85
2022-08-10T13:58:27.729Z,24.77
2022-08-10T14:00:59.303Z,24.77
2022-08-10T14:03:29.895Z,24.80
2022-08-10T14:05:59.775Z,24.45
2022-08-10T14:08:32.468Z,24.44
2022-08-10T14:11:11.594Z,24.65
2022-08-10T14:13:47.629Z,24.72
2022-08-10T14:16:18.613Z,24.39
2022-08-10T14:18:51.093Z,24.92
2022-08-10T14:21:20.549Z,25.21
2022-08-10T14:23:53.762Z,25.32
2022-08-10T14:26:27.496Z,25.19
2022-08-10T14:28:59.556Z,25.06
2022-08-10T14:31:33.804Z,24.66
2022-08-10T14:34:05.240Z,25.48
2022-08-10T14:36:41.803Z,25.45
2022-08-10T14:39:16.767Z,25.19
2022-08-10T14:42:01.567Z,25.07
2022-08-10T14:44:46.830Z,25.44
2022-08-10T14:47:53.905Z,25.21
2022-08-10T14:50:09.093Z,25.59
2022-08-10T14:52:44.101Z,25.23
2022-08-10T14:55:19.423Z,24.85
2022-08-10T14:58:20.124Z,25.22
2022-08-10T15:00:43.684Z,24.83
2022-08-10T15:03:58.464Z,25.70
2022-08-10T15:06:17.105Z,25.06
2022-08-10T15:08:48.053Z,25.01
2022-08-10T15:12:15.712Z,25.06
2022-08-10T15:14:25.923Z,24.88
2022-08-10T15:16:59.412Z,25.76
2022-08-10T15:20:02.326Z,25.50
2022-08-10T15:22:41.231Z,25.46
2022-08-10T15:25:17.977Z,25.27
2022-08-10T15:27:54.773Z,25.65
2022-08-10T15:30:32.233Z,25.60
2022-08-10T15:33:57.611Z,25.45
2022-08-10T15:36:34.532Z,25.55
2022-08-10T15:39:12.743Z,25.32
2022-08-10T15:42:00.261Z,25.61
2022-08-10T15:44:41.240Z,25.53
2022-08-10T15:47:21.512Z,25.77
2022-08-10T15:49:59.979Z,25.62
2022-08-10T15:52:39.362Z,25.52
2022-08-10T15:55:44.247Z,25.67
2022-08-10T15:58:39.304Z,25.53
2022-08-10T16:02:12.741Z,25.66
2022-08-10T16:04:08.340Z,25.68
2022-08-10T16:06:43.006Z,25.68
2022-08-10T16:10:10.709Z,26.39
2022-08-10T16:12:14.741Z,26.12
2022-08-10T16:14:48.605Z,26.14
2022-08-10T16:17:18.773Z,26.35
2022-08-10T16:19:52.775Z,26.31
2022-08-10T16:22:35.573Z,26.34
2022-08-10T16:25:13.592Z,26.03
2022-08-10T16:27:43.370Z,26.76
2022-08-10T16:30:13.487Z,26.31
2022-08-10T16:32:43.298Z,26.55
2022-08-10T16:35:21.381Z,26.32
2022-08-10T16:37:58.227Z,26.50
2022-08-10T16:40:30.467Z,26.57
2022-08-10T16:43:01.115Z,26.75
2022-08-10T16:45:36.954Z,26.58
2022-08-10T16:48:09.004Z,26.27
2022-08-10T16:50:43.020Z,26.59
2022-08-10T16:53:14.010Z,26.67
2022-08-10T16:55:50.556Z,27.06
2022-08-10T16:58:25.419Z,27.10
2022-08-10T17:00:54.725Z,26.89
2022-08-10T17:04:08.423Z,27.24
2022-08-10T17:06:25.112Z,27.12
2022-08-10T17:08:57.088Z,27.39
2022-08-10T17:11:31.998Z,26.97
2022-08-10T17:14:02.877Z,27.20
2022-08-10T17:16:36.403Z,27.22
2022-08-10T17:19:09.084Z,27.33
2022-08-10T17:21:51.638Z,27.51
2022-08-10T17:24:25.272Z,28.06
2022-08-10T17:26:57.325Z,28.14
2022-08-10T17:29:58.484Z,28.80
2022-08-10T17:32:25.247Z,29.10
2022-08-10T17:34:58.521Z,29.07
2022-08-10T17:37:37.791Z,29.67
2022-08-10T17:40:09.748Z,29.66
2022-08-10T17:42:41.173Z,29.80
2022-08-10T17:45:46.016Z,29.95
2022-08-10T17:48:09.555Z,30.27
2022-08-10T17:50:39.931Z,30.93
2022-08-10T17:53:16.954Z,30.97
2022-08-10T17:55:48.189Z,31.04
2022-08-10T17:58:18.859Z,31.21
2022-08-10T18:00:50.957Z,31.79
2022-08-10T18:03:25.529Z,31.82
2022-08-10T18:05:56.691Z,31.46
2022-08-10T18:08:33.910Z,31.88
2022-08-10T18:11:04.679Z,31.77
2022-08-10T18:13:56.529Z,31.48
2022-08-10T18:16:28.865Z,32.53
2022-08-10T18:19:01.046Z,32.73
2022-08-10T18:21:32.212Z,32.87
2022-08-10T18:24:12.863Z,33.93
2022-08-10T18:26:49.027Z,33.83
2022-08-10T18:29:21.739Z,33.73
2022-08-10T18:31:56.838Z,33.60
2022-08-10T18:34:27.742Z,33.88
2022-08-10T18:36:57.752Z,33.65
2022-08-10T18:39:30.920Z,34.86
2022-08-10T18:42:09.817Z,34.79
2022-08-10T18:44:43.640Z,36.61
2022-08-10T18:47:17.355Z,37.90
2022-08-10T18:50:02.962Z,40.43
2022-08-10T18:52:34.932Z,40.62
2022-08-10T18:55:24.532Z,40.61
2022-08-10T18:58:26.497Z,42.46
2022-08-10T19:01:12.910Z,43.47
2022-08-10T19:03:57.204Z,43.35
2022-08-10T19:07:03.769Z,45.87
2022-08-10T19:09:48.277Z,49.65
2022-08-10T19:12:33.746Z,55.72
2022-08-10T19:15:14.764Z,58.16
2022-08-10T19:18:03.133Z,62.34
2022-08-10T19:20:42.388Z,55.68
2022-08-10T19:23:19.615Z,59.56
2022-08-10T19:26:39.360Z,63.83
2022-08-10T19:28:58.620Z,65.92
2022-08-10T19:31:44.531Z,72.48
2022-08-10T19:34:27.434Z,80.86
2022-08-10T19:37:06.012Z,76.78
2022-08-10T19:39:50.667Z,82.81
2022-08-10T19:42:31.413Z,85.12
2022-08-10T19:46:01.866Z,93.70
2022-08-10T19:48:13.044Z,95.06
2022-08-10T19:50:45.846Z,96.24
2022-08-10T19:53:26.522Z,100.00
2022-08-10T19:56:24.301Z,100.00
2022-08-10T19:59:09.034Z,100.00
2022-08-10T20:01:55.249Z,100.00
2022-08-10T20:04:31.921Z,100.00
2022-08-10T20:07:15.052Z,100.00
2022-08-10T20:09:50.348Z,100.00
2022-08-10T20:12:36.319Z,100.00
2022-08-10T20:15:08.760Z,100.00
2022-08-10T20:17:51.574Z,100.00
2022-08-10T20:20:31.499Z,100.00
2022-08-10T20:23:11.896Z,100.00
2022-08-10T20:25:47.405Z,100.00
2022-08-10T20:28:21.579Z,100.00
2022-08-10T20:30:54.134Z,100.00
2022-08-10T20:33:33.156Z,100.00
2022-08-10T20:36:06.067Z,100.00
2022-08-10T20:38:42.135Z,100.00
2022-08-10T20:41:19.850Z,100.00
2022-08-10T20:43:59.501Z,100.00
2022-08-10T20:46:33.698Z,100.00
2022-08-10T20:49:17.702Z,100.00
2022-08-10T20:51:57.267Z,100.00
2022-08-10T20:54:33.674Z,100.00
2022-08-10T20:57:55.524Z,100.00
2022-08-10T21:00:17.168Z,100.00
2022-08-10T21:03:07.747Z,100.00
2022-08-10T21:06:00.233Z,100.00
2022-08-10T21:08:50.041Z,100.00
2022-08-10T21:11:35.239Z,100.00
2022-08-10T21:14:29.324Z,100.00
2022-08-10T21:17:15.353Z,100.00
2022-08-10T21:20:19.456Z,100.00
2022-08-10T21:23:05.845Z,100.00
2022-08-10T21:25:47.952Z,100.00
2022-08-10T21:28:47.349Z,100.00
2022-08-10T21:31:37.430Z,100.00
2022-08-10T21:34:19.443Z,100.00
2022-08-10T21:37:07.746Z,100.00
2022-08-10T21:39:50.996Z,100.00
2022-08-10T21:42:54.240Z,100.00
2022-08-10T21:46:00.058Z,100.00
2022-08-10T21:48:57.658Z,100.00
2022-08-10T21:52:01.944Z,100.00
2022-08-10T21:55:00.864Z,100.00
2022-08-10T21:58:05.459Z,100.00
2022-08-10T22:00:56.478Z,100.00
2022-08-10T22:03:43.563Z,100.00
2022-08-10T22:06:32.704Z,100.00
2022-08-10T22:09:24.675Z,100.00
2022-08-10T22:12:25.085Z,100.00
2022-08-10T22:16:04.023Z,100.00
2022-08-10T22:18:36.341Z,100.00
2022-08-10T22:24:53.979Z,100.00
2022-08-10T22:27:49.984Z,100.00
2022-08-10T22:30:39.051Z,100.00
2022-08-10T22:31:26.031Z,100.00
2022-08-10T22:33:42.107Z,100.00
2022-08-10T22:36:51.222Z,100.00
2022-08-10T22:40:11.060Z,100.00
2022-08-10T22:42:59.266Z,100.00
2022-08-10T22:46:03.608Z,100.00
2022-08-10T22:48:50.761Z,100.00
2022-08-10T22:51:24.634Z,100.00
2022-08-10T22:54:30.763Z,100.00
2022-08-10T22:57:19.618Z,100.00
2022-08-10T22:59:50.466Z,100.00
2022-08-10T23:02:30.356Z,100.00
2022-08-10T23:05:07.028Z,100.00
2022-08-10T23:07:40.425Z,100.00
2022-08-10T23:10:12.891Z,100.00
2022-08-10T23:12:49.008Z,100.00
2022-08-10T23:15:46.309Z,100.00
2022-08-10T23:18:39.647Z,100.00
2022-08-10T23:21:14.129Z,100.00
2022-08-10T23:23:44.186Z,100.00
2022-08-10T23:26:16.750Z,100.00
2022-08-10T23:28:58.154Z,100.00
2022-08-10T23:31:51.861Z,100.00
2022-08-10T23:34:22.685Z,100.00
2022-08-10T23:36:53.424Z,100.00
2022-08-10T23:39:31.230Z,100.00
2022-08-10T23:42:07.451Z,100.00
2022-08-10T23:44:41.882Z,100.00
2022-08-10T23:47:13.200Z,100.00
2022-08-10T23:49:46.136Z,100.00
2022-08-10T23:52:19.696Z,100.00
2022-08-10T23:54:51.493Z,100.00
2022-08-10T23:57:24.181Z,100.00
2022-08-10T23:59:56.818Z,100.00
